Time;durP1;ratioP1;P1;durP2;ratioP2;P2;SDS_P1;SDS_P2;PMS_P1;PMS_P2;Temp;Humidity;BMP_temperature;BMP_pressure;BME280_temperature;BME280_humidity;BME280_pressure;Samples;Min_cycle;Max_cycle;Signal;HPM_P1;HPM_P2
2021/11/29 00:01:39;;;;;;;21.70;9.45;;;1.00;99.90;;;;;;4961195;28;20054;-82
2021/11/29 00:04:08;;;;;;;21.55;8.77;;;2.40;99.90;;;;;;4985958;28;20046;-81
2021/11/29 00:06:36;;;;;;;18.08;9.63;;;0.90;99.90;;;;;;4955662;28;20054;-82
2021/11/29 00:09:04;;;;;;;16.08;8.45;;;1.00;99.90;;;;;;5002364;28;20042;-81
2021/11/29 00:11:33;;;;;;;21.88;10.73;;;0.90;99.90;;;;;;5004679;28;20068;-81
2021/11/29 00:14:05;;;;;;;18.75;8.80;;;1.40;99.90;;;;;;4995735;28;20053;-81
2021/11/29 00:16:33;;;;;;;21.50;11.07;;;3.10;99.90;;;;;;4999672;28;20417;-82
2021/11/29 00:19:05;;;;;;;19.15;10.02;;;2.80;99.90;;;;;;4978204;28;20062;-81
2021/11/29 00:21:34;;;;;;;19.83;9.32;;;0.90;99.90;;;;;;4974024;28;20061;-81
2021/11/29 00:24:05;;;;;;;20.08;10.43;;;2.50;99.90;;;;;;4970644;28;20053;-81
2021/11/29 00:26:33;;;;;;;;;;;0.80;99.90;;;;;;4988671;28;20047;-81
2021/11/29 00:29:05;;;;;;;17.50;8.95;;;0.70;99.90;;;;;;4984398;28;19926;-81
2021/11/29 00:31:33;;;;;;;23.25;10.10;;;0.70;99.90;;;;;;4983579;28;20058;-80
2021/11/29 00:34:02;;;;;;;22.02;10.23;;;1.90;99.90;;;;;;4986565;28;20057;-82
2021/11/29 00:36:30;;;;;;;20.60;11.27;;;0.70;99.90;;;;;;4984783;28;20057;-81
2021/11/29 00:38:58;;;;;;;21.15;11.00;;;0.60;99.90;;;;;;4948554;29;20050;-81
2021/11/29 00:41:29;;;;;;;22.05;9.98;;;0.60;99.90;;;;;;4964206;29;20066;-81
2021/11/29 00:43:59;;;;;;;25.27;12.00;;;1.20;99.90;;;;;;4983867;28;20057;-80
2021/11/29 00:46:27;;;;;;;24.90;11.13;;;0.60;99.90;;;;;;4979723;28;20038;-82
2021/11/29 00:48:55;;;;;;;26.48;15.15;;;1.90;99.90;;;;;;4983677;28;20060;-81
2021/11/29 00:51:23;;;;;;;22.08;11.90;;;2.00;99.90;;;;;;4964529;29;20290;-81
2021/11/29 00:53:51;;;;;;;24.48;12.40;;;0.50;99.90;;;;;;4964805;29;20055;-81
2021/11/29 00:56:21;;;;;;;29.38;14.45;;;0.50;99.90;;;;;;4964806;29;20047;-80
2021/11/29 00:58:49;;;;;;;27.90;15.25;;;0.50;99.90;;;;;;4947683;29;20047;-82
2021/11/29 01:01:17;;;;;;;23.17;14.50;;;0.50;99.90;;;;;;4962999;29;20595;-81
2021/11/29 01:03:46;;;;;;;30.45;14.00;;;1.90;99.90;;;;;;4948118;29;20058;-82
2021/11/29 01:06:20;;;;;;;31.27;14.35;;;2.40;99.90;;;;;;4964990;28;20061;-81
2021/11/29 01:08:48;;;;;;;23.00;11.82;;;0.40;99.90;;;;;;4985032;28;20053;-80
2021/11/29 01:11:16;;;;;;;26.52;12.75;;;0.70;99.90;;;;;;4984147;28;20055;-81
2021/11/29 01:13:45;;;;;;;29.27;15.50;;;0.50;99.90;;;;;;4980182;28;20047;-81
2021/11/29 01:16:13;;;;;;;26.30;12.98;;;0.40;99.90;;;;;;4965396;28;20398;-82
2021/11/29 01:18:41;;;;;;;29.30;15.32;;;0.50;99.90;;;;;;4984962;28;20051;-82
2021/11/29 01:21:10;;;;;;;30.65;12.15;;;2.40;99.90;;;;;;4981376;28;20046;-83
2021/11/29 01:23:38;;;;;;;23.92;13.23;;;2.60;99.90;;;;;;4990627;28;20051;-82
2021/11/29 01:26:06;;;;;;;25.90;12.68;;;0.50;99.90;;;;;;5001122;28;20038;-81
2021/11/29 01:28:35;;;;;;;29.15;14.88;;;0.50;99.90;;;;;;5000408;28;20054;-82
2021/11/29 01:31:04;;;;;;;26.48;13.75;;;2.30;99.90;;;;;;5000593;28;20053;-82
2021/11/29 01:33:33;;;;;;;26.27;13.00;;;0.60;99.90;;;;;;5000810;28;20058;-82
2021/11/29 01:36:02;;;;;;;26.33;13.40;;;2.70;99.90;;;;;;5000264;28;20054;-80
2021/11/29 01:38:31;;;;;;;28.20;14.45;;;0.60;99.90;;;;;;5001482;28;20050;-81
2021/11/29 01:40:59;;;;;;;27.20;12.40;;;1.30;99.90;;;;;;4986435;28;20058;-81
2021/11/29 01:43:27;;;;;;;29.35;15.15;;;1.60;99.90;;;;;;4999776;28;20061;-81
2021/11/29 01:45:56;;;;;;;26.48;13.23;;;0.60;99.90;;;;;;5004499;28;20065;-82
2021/11/29 01:48:26;;;;;;;31.50;12.82;;;1.30;99.90;;;;;;4988689;28;20045;-81
2021/11/29 01:50:57;;;;;;;29.67;13.50;;;2.20;99.90;;;;;;4998343;28;20046;-81
2021/11/29 01:53:28;;;;;;;27.40;13.55;;;0.60;99.90;;;;;;4986787;28;20051;-82
2021/11/29 01:55:58;;;;;;;22.60;10.88;;;1.10;99.90;;;;;;4985750;28;20043;-81
2021/11/29 01:58:29;;;;;;;27.20;12.07;;;2.00;99.90;;;;;;4985714;28;20138;-81
2021/11/29 02:01:02;;;;;;;28.58;16.58;;;2.60;99.90;;;;;;4984597;28;20535;-81
2021/11/29 02:03:35;;;;;;;24.67;14.43;;;2.30;99.90;;;;;;4999939;28;20058;-82
2021/11/29 02:06:03;;;;;;;29.23;13.35;;;0.50;99.90;;;;;;5004185;28;20096;-81
2021/11/29 02:08:32;;;;;;;27.77;13.45;;;2.00;99.90;;;;;;4988950;28;20142;-82
2021/11/29 02:11:00;;;;;;;28.95;13.80;;;2.40;99.90;;;;;;4988563;28;20054;-82
2021/11/29 02:13:29;;;;;;;30.75;13.90;;;0.40;99.90;;;;;;4987122;28;20054;-81
2021/11/29 02:15:57;;;;;;;29.50;14.95;;;0.30;99.90;;;;;;4965991;28;20061;-81
2021/11/29 02:18:29;;;;;;;24.75;12.57;;;2.00;99.90;;;;;;4984686;28;20069;-81
2021/11/29 02:21:06;;;;;;;28.52;13.18;;;1.90;99.90;;;;;;4969329;28;20043;-81
2021/11/29 02:23:36;;;;;;;24.92;10.63;;;0.20;99.90;;;;;;4967109;28;20123;-81
2021/11/29 02:26:05;;;;;;;25.63;14.18;;;1.70;99.90;;;;;;4968774;29;20052;-82
2021/11/29 02:28:36;;;;;;;28.05;14.18;;;0.10;99.90;;;;;;4967055;28;20055;-81
2021/11/29 02:31:10;;;;;;;28.20;12.70;;;2.10;99.90;;;;;;4987622;28;20051;-81
2021/11/29 02:33:39;;;;;;;28.90;13.32;;;0.20;99.90;;;;;;4984130;28;20300;-82
2021/11/29 02:36:09;;;;;;;28.38;15.00;;;2.00;99.90;;;;;;4981083;28;20051;-81
2021/11/29 02:38:47;;;;;;;27.90;15.93;;;0.10;99.90;;;;;;4979374;28;20055;-82
2021/11/29 02:41:16;;;;;;;35.08;16.05;;;2.10;99.90;;;;;;4967457;28;20051;-81
2021/11/29 02:43:45;;;;;;;29.55;15.93;;;0.60;99.90;;;;;;4962789;29;20054;-81
2021/11/29 02:46:14;;;;;;;34.70;15.20;;;1.20;99.90;;;;;;4985529;28;20042;-81
2021/11/29 02:48:46;;;;;;;31.33;15.82;;;1.30;99.90;;;;;;4971786;28;20054;-81
2021/11/29 02:51:39;;;;;;;32.10;14.75;;;1.90;99.90;;;;;;4975796;28;20057;-82
2021/11/29 02:54:13;;;;;;;29.50;15.88;;;-0.20;99.90;;;;;;4965577;29;20433;-81
2021/11/29 02:56:45;;;;;;;28.80;15.23;;;1.40;99.90;;;;;;4939403;28;20521;-81
2021/11/29 02:59:19;;;;;;;32.70;14.98;;;-0.20;99.90;;;;;;4967981;28;20355;-81
2021/11/29 03:01:50;;;;;;;29.85;15.45;;;-0.20;99.90;;;;;;4982884;28;20055;-81
2021/11/29 03:04:23;;;;;;;30.67;13.63;;;1.40;99.90;;;;;;4989002;28;20062;-81
2021/11/29 03:06:51;;;;;;;24.65;13.35;;;0.50;99.90;;;;;;4975271;28;20051;-82
2021/11/29 03:09:20;;;;;;;29.83;14.85;;;-1.10;99.90;;;;;;4968842;28;20051;-81
2021/11/29 03:11:49;;;;;;;26.50;13.80;;;1.40;99.90;;;;;;4968122;28;20191;-81
2021/11/29 03:14:18;;;;;;;31.60;13.77;;;1.70;99.90;;;;;;4987510;28;20053;-83
2021/11/29 03:16:46;;;;;;;27.60;14.57;;;1.50;99.90;;;;;;4986197;28;20069;-83
2021/11/29 03:19:15;;;;;;;28.98;15.38;;;0.90;99.90;;;;;;5005812;28;20312;-81
2021/11/29 03:21:43;;;;;;;31.20;15.35;;;0.00;99.90;;;;;;4939166;29;20062;-81
2021/11/29 03:24:11;;;;;;;29.80;14.88;;;1.00;99.90;;;;;;4973337;28;20047;-81
2021/11/29 03:26:45;;;;;;;26.08;13.32;;;1.60;99.90;;;;;;4964081;29;20051;-81
2021/11/29 03:29:19;;;;;;;29.65;14.45;;;0.00;99.90;;;;;;4949885;29;20058;-81
2021/11/29 03:31:52;;;;;;;35.30;18.15;;;1.40;99.90;;;;;;4948732;29;20056;-81
2021/11/29 03:34:21;;;;;;;33.20;16.65;;;-0.10;99.90;;;;;;4953132;28;20083;-82
2021/11/29 03:36:50;;;;;;;32.58;15.70;;;0.00;99.90;;;;;;4981929;28;20508;-80
2021/11/29 03:39:24;;;;;;;33.22;17.40;;;-0.10;99.90;;;;;;4983473;28;20054;-81
2021/11/29 03:41:55;;;;;;;34.15;17.02;;;1.60;99.90;;;;;;4966429;28;20053;-82
2021/11/29 03:44:24;;;;;;;32.50;14.30;;;-0.10;99.90;;;;;;4969612;28;20053;-81
2021/11/29 03:46:54;;;;;;;48.70;18.90;;;2.20;99.90;;;;;;4988123;28;20051;-82
2021/11/29 03:49:24;;;;;;;29.67;14.77;;;1.30;99.90;;;;;;4986624;28;20512;-81
2021/11/29 03:51:53;;;;;;;28.17;15.20;;;0.10;99.90;;;;;;4971659;28;20047;-81
2021/11/29 03:54:22;;;;;;;34.42;15.90;;;1.70;99.90;;;;;;4982934;28;20055;-83
2021/11/29 03:56:51;;;;;;;37.47;16.55;;;-0.20;99.90;;;;;;4967956;28;20057;-81
2021/11/29 03:59:19;;;;;;;33.22;17.90;;;-0.30;99.90;;;;;;4966547;28;20042;-81
2021/11/29 04:01:48;;;;;;;47.85;17.02;;;0.70;99.90;;;;;;4986295;28;20035;-81
2021/11/29 04:04:20;;;;;;;32.90;16.08;;;1.60;99.90;;;;;;4992076;28;20052;-82
2021/11/29 04:06:49;;;;;;;29.17;16.58;;;-0.30;99.90;;;;;;4972514;28;20047;-82
2021/11/29 04:09:17;;;;;;;35.42;17.02;;;0.60;99.90;;;;;;4983355;28;20069;-83
2021/11/29 04:11:45;;;;;;;37.58;18.20;;;1.70;99.90;;;;;;4965343;28;20055;-82
2021/11/29 04:14:12;;;;;;;34.45;14.93;;;-0.60;99.90;;;;;;4965877;28;20059;-81
2021/11/29 04:16:41;;;;;;;34.72;16.63;;;0.90;99.90;;;;;;4987548;28;20058;-82
2021/11/29 04:19:09;;;;;;;35.45;15.98;;;0.90;99.90;;;;;;4993119;28;20049;-81
2021/11/29 04:21:39;;;;;;;33.35;14.40;;;-0.20;99.90;;;;;;4994776;28;20058;-81
2021/11/29 04:24:07;;;;;;;35.78;17.52;;;-0.40;99.90;;;;;;4990460;28;20130;-81
2021/11/29 04:26:38;;;;;;;33.97;14.68;;;1.60;99.90;;;;;;4970088;28;20042;-81
2021/11/29 04:29:16;;;;;;;31.50;15.63;;;1.10;99.90;;;;;;4987776;28;20042;-82
2021/11/29 04:31:45;;;;;;;37.80;17.50;;;-1.40;99.90;;;;;;4987561;28;20061;-80
2021/11/29 04:34:15;;;;;;;30.05;17.00;;;-0.10;99.90;;;;;;4990803;28;20050;-82
2021/11/29 04:36:46;;;;;;;39.53;15.43;;;1.60;99.90;;;;;;5009315;28;20042;-82
2021/11/29 04:39:16;;;;;;;30.92;15.10;;;-0.40;99.90;;;;;;4986986;28;20045;-81
2021/11/29 04:41:45;;;;;;;27.27;16.17;;;1.00;99.90;;;;;;4983870;28;20045;-81
2021/11/29 04:44:14;;;;;;;35.22;15.75;;;1.60;99.90;;;;;;4987593;28;20046;-82
2021/11/29 04:46:43;;;;;;;35.22;16.30;;;-0.50;99.90;;;;;;5006452;28;20050;-81
2021/11/29 04:49:11;;;;;;;39.75;17.23;;;1.60;99.90;;;;;;4969577;28;20070;-82
2021/11/29 04:51:39;;;;;;;33.40;14.85;;;1.40;99.90;;;;;;4969448;28;20049;-81
2021/11/29 04:54:09;;;;;;;44.05;18.50;;;-0.80;99.90;;;;;;4987020;28;20050;-81
2021/11/29 04:56:39;;;;;;;36.60;16.42;;;0.30;99.90;;;;;;5004202;28;20050;-81
2021/11/29 04:59:07;;;;;;;37.67;16.63;;;1.20;99.90;;;;;;4988504;28;20058;-81
2021/11/29 05:01:35;;;;;;;47.55;17.33;;;-0.50;99.90;;;;;;4991641;28;20191;-81
2021/11/29 05:04:04;;;;;;;39.70;17.52;;;0.50;99.90;;;;;;5005108;28;20061;-81
2021/11/29 05:06:33;;;;;;;35.13;15.13;;;1.10;99.90;;;;;;4995345;28;20112;-82
2021/11/29 05:09:01;;;;;;;43.20;17.60;;;1.30;99.90;;;;;;4953902;28;20058;-81
2021/11/29 05:11:29;;;;;;;36.50;16.50;;;-0.50;99.90;;;;;;4986608;28;20054;-81
2021/11/29 05:13:57;;;;;;;41.50;19.95;;;1.00;99.90;;;;;;4989440;28;20061;-81
2021/11/29 05:16:25;;;;;;;41.03;16.60;;;-0.50;99.90;;;;;;5009775;28;20042;-81
2021/11/29 05:18:53;;;;;;;33.67;16.67;;;0.50;99.90;;;;;;4982433;28;20051;-80
2021/11/29 05:21:22;;;;;;;40.03;16.50;;;1.50;99.90;;;;;;4988760;28;20046;-81
2021/11/29 05:23:52;;;;;;;39.03;17.13;;;1.10;99.90;;;;;;4969462;28;20538;-81
2021/11/29 05:26:25;;;;;;;42.63;17.60;;;1.10;99.90;;;;;;5010369;28;20047;-81
2021/11/29 05:28:54;;;;;;;38.75;18.05;;;-0.80;99.90;;;;;;4993236;28;20054;-80
2021/11/29 05:31:23;;;;;;;37.67;16.70;;;-0.60;99.90;;;;;;5012168;28;20038;-81
2021/11/29 05:33:51;;;;;;;40.15;17.05;;;-0.60;99.90;;;;;;4991456;28;20050;-81
2021/11/29 05:36:19;;;;;;;36.67;19.20;;;0.00;99.90;;;;;;4998915;28;20062;-82
2021/11/29 05:38:47;;;;;;;40.45;15.77;;;1.20;99.90;;;;;;4989628;28;20058;-81
2021/11/29 05:41:15;;;;;;;43.55;17.10;;;-0.60;99.90;;;;;;4991428;28;20051;-80
2021/11/29 05:43:43;;;;;;;44.95;21.30;;;0.00;99.90;;;;;;4971104;28;20531;-80
2021/11/29 05:46:12;;;;;;;45.05;18.98;;;-0.60;99.90;;;;;;4977491;28;20054;-81
2021/11/29 05:48:40;;;;;;;40.80;17.90;;;-0.80;99.90;;;;;;5010778;28;20057;-81
2021/11/29 05:51:08;;;;;;;45.08;18.50;;;0.60;99.90;;;;;;5004064;28;20316;-81
2021/11/29 05:53:36;;;;;;;43.20;20.90;;;-0.60;99.90;;;;;;4988754;28;20053;-81
2021/11/29 05:56:06;;;;;;;39.05;20.23;;;-0.30;99.90;;;;;;4958705;28;20061;-81
2021/11/29 05:58:36;;;;;;;40.67;19.27;;;-0.70;99.90;;;;;;4987937;28;20057;-81
2021/11/29 06:01:04;;;;;;;36.53;19.48;;;-0.70;99.90;;;;;;5008074;28;20047;-81
2021/11/29 06:03:33;;;;;;;44.80;20.98;;;-0.70;99.90;;;;;;5000334;28;20069;-82
2021/11/29 06:06:02;;;;;;;42.45;19.73;;;-0.70;99.90;;;;;;5009202;28;20247;-81
2021/11/29 06:08:31;;;;;;;45.05;17.35;;;0.60;99.90;;;;;;4989427;28;20112;-81
2021/11/29 06:10:59;;;;;;;42.35;16.55;;;1.20;99.90;;;;;;4991088;28;20038;-82
2021/11/29 06:13:27;;;;;;;41.72;19.17;;;1.00;99.90;;;;;;4990855;28;20065;-80
2021/11/29 06:15:56;;;;;;;42.65;19.38;;;1.30;99.90;;;;;;4997090;28;20057;-82
2021/11/29 06:18:25;;;;;;;35.80;17.67;;;-0.60;99.90;;;;;;4971385;28;20061;-81
2021/11/29 06:20:53;;;;;;;43.30;18.98;;;-0.70;99.90;;;;;;4957650;28;20543;-81
2021/11/29 06:23:21;;;;;;;44.65;18.15;;;0.80;99.90;;;;;;4974808;28;20054;-80
2021/11/29 06:25:49;;;;;;;36.65;17.58;;;-0.10;99.90;;;;;;4983761;28;20051;-81
2021/11/29 06:28:17;;;;;;;39.88;17.30;;;-0.60;99.90;;;;;;4968557;29;20050;-80
2021/11/29 06:30:45;;;;;;;40.10;17.75;;;-0.70;99.90;;;;;;4987033;28;20042;-82
2021/11/29 06:33:13;;;;;;;43.05;20.27;;;-2.30;99.90;;;;;;5006692;28;20064;-81
2021/11/29 06:35:42;;;;;;;42.40;20.02;;;-0.70;99.90;;;;;;5000368;28;20522;-80
2021/11/29 06:38:11;;;;;;;38.63;16.20;;;-0.70;99.90;;;;;;4983159;28;20053;-80
2021/11/29 06:40:47;;;;;;;45.80;20.60;;;1.60;99.90;;;;;;4979892;28;20051;-80
2021/11/29 06:43:18;;;;;;;36.65;19.75;;;-0.70;99.90;;;;;;4988955;28;20058;-80
2021/11/29 06:45:47;;;;;;;37.22;16.75;;;-0.60;99.90;;;;;;4986632;28;20054;-81
2021/11/29 06:48:15;;;;;;;43.10;19.98;;;0.40;99.90;;;;;;4969283;28;20050;-80
2021/11/29 06:50:45;;;;;;;46.53;18.95;;;1.10;99.90;;;;;;4982547;28;20508;-81
2021/11/29 06:53:15;;;;;;;43.42;22.17;;;-0.50;99.90;;;;;;4963690;29;20044;-81
2021/11/29 06:55:46;;;;;;;40.25;17.75;;;0.10;99.90;;;;;;4977446;28;20083;-81
2021/11/29 06:58:14;;;;;;;45.90;22.67;;;0.10;99.90;;;;;;5001557;28;20050;-82
2021/11/29 07:00:42;;;;;;;39.13;20.75;;;-0.60;99.90;;;;;;4981595;28;20058;-82
2021/11/29 07:03:11;;;;;;;39.17;19.10;;;1.20;99.90;;;;;;4975345;28;20039;-82
2021/11/29 07:05:39;;;;;;;46.90;19.85;;;0.50;99.90;;;;;;4983830;28;20066;-82
2021/11/29 07:08:08;;;;;;;36.15;18.85;;;0.20;99.90;;;;;;4967109;28;20061;-82
2021/11/29 07:10:40;;;;;;;41.38;19.17;;;1.00;99.90;;;;;;4985303;28;20080;-82
2021/11/29 07:13:11;;;;;;;48.28;19.25;;;-0.70;99.90;;;;;;4948332;28;20039;-79
2021/11/29 07:15:53;;;;;;;46.75;18.05;;;-0.90;99.90;;;;;;4970594;28;20065;-81
2021/11/29 07:18:21;;;;;;;40.33;21.92;;;-0.60;99.90;;;;;;4992667;28;20047;-81
2021/11/29 07:20:50;;;;;;;39.50;17.67;;;-0.50;99.90;;;;;;4974178;28;20050;-80
2021/11/29 07:23:18;;;;;;;37.45;17.10;;;-0.90;99.90;;;;;;4962715;28;20417;-80
2021/11/29 07:25:46;;;;;;;40.40;17.23;;;-0.30;99.90;;;;;;4967835;28;20043;-81
2021/11/29 07:28:15;;;;;;;41.70;21.45;;;1.30;99.90;;;;;;4982179;28;20054;-80
2021/11/29 07:30:43;;;;;;;52.85;20.13;;;-0.60;99.90;;;;;;4972517;28;20047;-81
2021/11/29 07:33:13;;;;;;;43.70;18.90;;;0.20;99.90;;;;;;4955963;28;20046;-81
2021/11/29 07:35:47;;;;;;;43.28;19.20;;;0.00;99.90;;;;;;4970979;28;20050;-83
2021/11/29 07:38:17;;;;;;;42.75;17.02;;;-0.60;99.90;;;;;;4983335;28;20046;-79
2021/11/29 07:40:46;;;;;;;37.38;15.80;;;-0.80;99.90;;;;;;4971415;28;20043;-84
2021/11/29 07:43:18;;;;;;;;;;;-0.20;99.90;;;;;;4952470;28;20051;-80
2021/11/29 07:45:48;;;;;;;38.15;17.95;;;-0.60;99.90;;;;;;4975293;28;19922;-79
2021/11/29 07:48:24;;;;;;;50.03;19.88;;;-0.60;99.90;;;;;;4972418;28;20047;-79
2021/11/29 07:50:54;;;;;;;44.85;17.20;;;-0.50;99.90;;;;;;4984418;28;20058;-80
2021/11/29 07:53:22;;;;;;;45.58;20.33;;;-0.50;99.90;;;;;;5000503;28;20058;-81
2021/11/29 07:55:53;;;;;;;41.95;18.05;;;0.80;99.90;;;;;;4986548;28;20053;-81
2021/11/29 07:58:24;;;;;;;39.03;17.42;;;-0.10;99.90;;;;;;4958630;28;20050;-81
2021/11/29 08:01:11;;;;;;;;;;;;;;;;;;;;;
2021/11/29 08:03:44;;;;;;;45.10;20.13;;;0.40;99.90;;;;;;4976144;28;20562;-81
2021/11/29 08:06:17;;;;;;;43.67;19.02;;;1.50;99.90;;;;;;4970061;28;20066;-81
2021/11/29 08:08:48;;;;;;;43.88;18.67;;;1.40;99.90;;;;;;4968002;28;20084;-82
2021/11/29 08:11:25;;;;;;;41.22;20.13;;;0.30;99.90;;;;;;4967894;28;20055;-85
2021/11/29 08:14:34;;;;;;;41.38;18.58;;;-1.00;99.90;;;;;;4979043;28;20064;-82
2021/11/29 08:17:12;;;;;;;41.90;20.13;;;-0.40;99.90;;;;;;4990119;28;20070;-82
2021/11/29 08:20:02;;;;;;;44.08;19.77;;;-0.40;99.90;;;;;;5000219;28;20072;-81
2021/11/29 08:22:43;;;;;;;43.45;23.52;;;1.10;99.90;;;;;;5005725;28;20072;-81
2021/11/29 08:25:11;;;;;;;36.08;18.08;;;-0.30;99.90;;;;;;5004388;28;20050;-85
2021/11/29 08:28:14;;;;;;;46.67;18.88;;;-0.30;99.90;;;;;;5005038;28;20046;-83
2021/11/29 08:30:52;;;;;;;41.75;17.92;;;-0.30;99.90;;;;;;4971189;28;20050;-83
2021/11/29 08:33:27;;;;;;;42.30;18.08;;;0.20;99.90;;;;;;4989823;28;20054;-82
2021/11/29 08:36:03;;;;;;;40.53;20.23;;;1.60;99.90;;;;;;4952605;28;20051;-83
2021/11/29 08:38:35;;;;;;;39.90;19.30;;;-0.40;99.90;;;;;;5003490;28;20046;-84
2021/11/29 08:41:03;;;;;;;45.58;19.33;;;1.20;99.90;;;;;;4956369;28;20062;-82
2021/11/29 08:43:32;;;;;;;49.45;18.58;;;0.70;99.90;;;;;;4958828;28;20042;-83
2021/11/29 08:46:03;;;;;;;45.60;20.83;;;-0.10;99.90;;;;;;5019870;28;20053;-82
2021/11/29 08:48:39;;;;;;;42.50;20.05;;;2.10;99.90;;;;;;5008988;28;20053;-82
2021/11/29 08:51:11;;;;;;;56.90;26.15;;;0.10;99.90;;;;;;4990049;28;20041;-83
2021/11/29 08:54:09;;;;;;;42.60;20.40;;;0.00;99.90;;;;;;5005165;28;20039;-85
2021/11/29 08:56:47;;;;;;;39.10;16.90;;;0.20;99.90;;;;;;4957804;28;20054;-83
2021/11/29 08:59:18;;;;;;;41.30;23.38;;;0.10;99.90;;;;;;4986564;28;20061;-84
2021/11/29 09:01:53;;;;;;;46.83;20.23;;;0.20;99.90;;;;;;5003935;28;20050;-84
2021/11/29 09:04:28;;;;;;;45.05;23.27;;;0.20;99.90;;;;;;4966696;28;20054;-85
2021/11/29 09:06:56;;;;;;;51.75;23.42;;;0.20;99.90;;;;;;4964338;28;20073;-84
2021/11/29 09:09:25;;;;;;;44.90;21.10;;;2.20;99.90;;;;;;4983711;28;20051;-84
2021/11/29 09:11:54;;;;;;;45.47;22.85;;;0.50;99.90;;;;;;4989721;28;20043;-85
2021/11/29 09:14:36;;;;;;;38.10;19.88;;;2.30;99.90;;;;;;5004669;28;20060;-85
2021/11/29 09:17:09;;;;;;;46.42;20.42;;;0.50;99.90;;;;;;5002772;28;20061;-84
2021/11/29 09:19:37;;;;;;;45.40;23.40;;;0.50;99.90;;;;;;4965794;28;20051;-85
2021/11/29 09:22:05;;;;;;;47.22;20.85;;;1.10;99.90;;;;;;4975780;28;20044;-84
2021/11/29 09:24:34;;;;;;;40.80;19.67;;;0.60;99.90;;;;;;4961842;28;20059;-84
2021/11/29 09:27:02;;;;;;;51.35;19.95;;;0.60;99.90;;;;;;4980552;28;20038;-85
2021/11/29 09:29:30;;;;;;;37.22;18.63;;;0.70;99.90;;;;;;4978942;28;20069;-85
2021/11/29 09:32:09;;;;;;;38.80;20.73;;;0.50;99.90;;;;;;4984926;28;20050;-84
2021/11/29 09:34:43;;;;;;;36.08;19.75;;;0.80;99.90;;;;;;4989853;28;20058;-85
2021/11/29 09:37:15;;;;;;;48.65;21.88;;;3.00;99.90;;;;;;4974284;28;20046;-86
2021/11/29 09:39:51;;;;;;;35.97;16.42;;;0.90;99.90;;;;;;4956273;28;20051;-86
2021/11/29 09:42:20;;;;;;;44.03;20.58;;;1.40;99.90;;;;;;4973389;28;20042;-84
2021/11/29 09:44:53;;;;;;;35.67;18.95;;;1.00;99.90;;;;;;4989113;28;20069;-85
2021/11/29 09:47:21;;;;;;;42.30;19.88;;;2.50;99.90;;;;;;4986846;28;20046;-84
2021/11/29 09:49:56;;;;;;;41.03;17.40;;;1.50;99.90;;;;;;4990303;28;20051;-84
2021/11/29 09:52:32;;;;;;;46.33;19.50;;;1.10;99.90;;;;;;4986854;28;20055;-84
2021/11/29 09:55:03;;;;;;;44.63;17.27;;;1.60;99.90;;;;;;4991603;28;20050;-85
2021/11/29 09:57:31;;;;;;;43.17;19.20;;;1.20;99.90;;;;;;4984413;28;20062;-84
2021/11/29 09:59:59;;;;;;;42.90;20.98;;;1.20;99.90;;;;;;4984177;28;20292;-85
2021/11/29 10:02:31;;;;;;;39.13;17.38;;;1.30;99.90;;;;;;4985428;28;20042;-86
2021/11/29 10:04:59;;;;;;;38.92;22.23;;;2.30;99.90;;;;;;4968184;28;20065;-85
2021/11/29 10:07:31;;;;;;;45.35;16.90;;;1.40;99.90;;;;;;5001513;28;20045;-85
2021/11/29 10:10:28;;;;;;;35.17;17.77;;;1.40;99.90;;;;;;4976641;28;20043;-85
2021/11/29 10:13:09;;;;;;;36.03;18.08;;;1.40;99.90;;;;;;5005795;28;20055;-85
2021/11/29 10:15:41;;;;;;;45.67;18.00;;;1.40;99.90;;;;;;4991259;28;20061;-85
2021/11/29 10:18:15;;;;;;;41.20;17.75;;;2.50;99.90;;;;;;5010485;28;20052;-84
2021/11/29 10:20:53;;;;;;;39.72;17.95;;;1.50;99.90;;;;;;5030010;28;20056;-85
2021/11/29 10:23:41;;;;;;;44.28;18.30;;;1.50;99.90;;;;;;4994459;28;20058;-84
2021/11/29 10:26:34;;;;;;;40.28;21.58;;;1.50;99.90;;;;;;4989760;28;20051;-84
2021/11/29 10:29:08;;;;;;;35.25;16.75;;;1.50;99.90;;;;;;4990100;28;20054;-87
2021/11/29 10:32:06;;;;;;;41.75;18.85;;;3.80;99.90;;;;;;5016314;28;20775;-85
2021/11/29 10:34:36;;;;;;;40.40;19.70;;;0.10;99.90;;;;;;5006017;28;20062;-84
2021/11/29 10:37:09;;;;;;;40.78;18.77;;;1.50;99.90;;;;;;5003215;28;20062;-86
2021/11/29 10:39:41;;;;;;;41.17;19.80;;;1.60;99.90;;;;;;5004315;28;20401;-85
2021/11/29 10:42:13;;;;;;;39.92;18.15;;;1.70;99.90;;;;;;4989369;28;20058;-85
2021/11/29 10:44:44;;;;;;;45.53;24.08;;;1.70;99.90;;;;;;4984850;28;20058;-85
2021/11/29 10:47:18;;;;;;;50.72;24.35;;;1.80;99.90;;;;;;4988168;28;20060;-84
2021/11/29 10:49:56;;;;;;;56.35;27.75;;;1.80;99.90;;;;;;4983726;28;20559;-85
2021/11/29 10:52:28;;;;;;;44.55;22.33;;;1.90;99.90;;;;;;5003441;28;20035;-85
2021/11/29 10:54:57;;;;;;;40.38;18.00;;;1.90;99.90;;;;;;4969424;28;20055;-83
2021/11/29 10:57:27;;;;;;;38.42;19.65;;;2.70;99.90;;;;;;4991358;28;20070;-85
2021/11/29 11:00:01;;;;;;;48.33;24.15;;;2.00;99.90;;;;;;5017116;28;20049;-86
2021/11/29 11:02:37;;;;;;;35.83;17.17;;;2.00;99.90;;;;;;4977964;28;20045;-86
2021/11/29 11:05:15;;;;;;;39.80;19.83;;;2.10;99.90;;;;;;4987235;28;20117;-86
2021/11/29 11:07:45;;;;;;;39.10;18.52;;;2.00;99.90;;;;;;4996153;28;20061;-85
2021/11/29 11:10:15;;;;;;;36.03;17.38;;;3.50;99.90;;;;;;4987949;28;20404;-85
2021/11/29 11:12:45;;;;;;;35.33;17.50;;;2.20;99.90;;;;;;5009654;28;20050;-85
2021/11/29 11:15:16;;;;;;;33.90;17.70;;;2.20;99.90;;;;;;5024120;28;20030;-85
2021/11/29 11:18:39;;;;;;;37.33;18.15;;;2.20;99.90;;;;;;4978287;28;20068;-83
2021/11/29 11:21:15;;;;;;;44.10;17.05;;;2.30;99.90;;;;;;4985082;28;20058;-85
2021/11/29 11:23:43;;;;;;;30.05;14.85;;;3.50;99.90;;;;;;4988669;28;20054;-84
2021/11/29 11:26:32;;;;;;;48.58;21.10;;;2.40;99.90;;;;;;5004983;28;20471;-84
2021/11/29 11:29:00;;;;;;;45.20;23.02;;;2.40;99.90;;;;;;4990534;28;20040;-85
2021/11/29 11:31:30;;;;;;;43.35;21.95;;;2.40;99.90;;;;;;4992064;28;20048;-85
2021/11/29 11:33:59;;;;;;;46.88;22.45;;;2.80;99.90;;;;;;5016404;28;20065;-85
2021/11/29 11:36:28;;;;;;;48.20;22.70;;;2.50;99.90;;;;;;5010115;28;20053;-87
2021/11/29 11:39:04;;;;;;;48.13;17.75;;;2.50;99.90;;;;;;4976658;28;20042;-85
2021/11/29 11:41:33;;;;;;;45.30;21.42;;;4.40;99.90;;;;;;4992153;28;20051;-85
2021/11/29 11:44:06;;;;;;;39.90;19.10;;;4.10;99.90;;;;;;4992479;28;20042;-85
2021/11/29 11:46:58;;;;;;;36.00;17.02;;;2.60;99.90;;;;;;4976348;28;20038;-84
2021/11/29 11:49:27;;;;;;;40.65;19.00;;;2.70;99.90;;;;;;5002907;28;20052;-84
2021/11/29 11:52:01;;;;;;;44.75;23.08;;;2.80;99.90;;;;;;4980585;28;20069;-82
2021/11/29 11:54:36;;;;;;;49.03;21.17;;;2.90;99.90;;;;;;4988621;28;20065;-82
2021/11/29 11:57:31;;;;;;;35.90;17.55;;;2.90;99.90;;;;;;4972382;28;20057;-84
2021/11/29 12:00:34;;;;;;;50.97;20.23;;;3.00;99.90;;;;;;4990651;28;20050;-86
2021/11/29 12:03:14;;;;;;;39.63;16.92;;;3.00;99.90;;;;;;5022832;28;20056;-82
2021/11/29 12:05:58;;;;;;;32.15;14.32;;;3.10;99.90;;;;;;4981348;28;20048;-84
2021/11/29 12:08:48;;;;;;;32.35;16.85;;;3.20;99.90;;;;;;4993116;28;20058;-83
2021/11/29 12:11:29;;;;;;;36.50;16.55;;;3.20;99.90;;;;;;4957041;28;20049;-82
2021/11/29 12:14:27;;;;;;;32.00;15.75;;;3.30;99.90;;;;;;4973845;28;20088;-87
2021/11/29 12:17:11;;;;;;;40.88;17.38;;;3.40;99.90;;;;;;5005013;28;20042;-79
2021/11/29 12:19:42;;;;;;;31.85;16.88;;;3.40;99.90;;;;;;4975103;28;20047;-79
2021/11/29 12:22:15;;;;;;;27.00;14.98;;;4.10;99.90;;;;;;5002218;28;20046;-79
2021/11/29 12:25:24;;;;;;;33.20;16.60;;;3.40;99.90;;;;;;4994311;28;20053;-79
2021/11/29 12:28:02;;;;;;;35.22;17.00;;;3.50;99.90;;;;;;4990730;28;20054;-79
2021/11/29 12:30:43;;;;;;;37.13;16.65;;;4.50;99.90;;;;;;4988503;28;20046;-79
2021/11/29 12:33:14;;;;;;;30.05;13.70;;;3.50;99.90;;;;;;4990528;28;20030;-79
2021/11/29 12:35:42;;;;;;;28.70;14.55;;;3.70;99.90;;;;;;5008895;28;20045;-79
2021/11/29 12:38:21;;;;;;;32.67;15.10;;;4.40;99.90;;;;;;5002099;28;20050;-79
2021/11/29 12:41:05;;;;;;;31.73;15.38;;;5.80;99.90;;;;;;4985609;28;20065;-79
2021/11/29 12:43:45;;;;;;;33.70;16.40;;;3.70;99.90;;;;;;4972659;28;20052;-79
2021/11/29 12:46:39;;;;;;;34.20;15.57;;;3.80;99.90;;;;;;4990296;28;20610;-80
2021/11/29 12:49:35;;;;;;;33.47;15.35;;;3.90;99.90;;;;;;5008295;28;20541;-80
2021/11/29 12:52:03;;;;;;;28.70;15.48;;;4.00;99.90;;;;;;5006498;28;20064;-79
2021/11/29 12:54:44;;;;;;;35.50;15.63;;;4.00;99.90;;;;;;4984023;28;20046;-78
2021/11/29 12:57:18;;;;;;;31.90;15.50;;;4.00;99.90;;;;;;4984830;28;20054;-78
2021/11/29 13:00:15;;;;;;;38.42;15.85;;;4.60;99.90;;;;;;5000726;28;20066;-79
2021/11/29 13:02:47;;;;;;;28.27;13.82;;;4.10;99.90;;;;;;5004406;28;20048;-78